createdAt,value
2022-10-02T00:01:28.760Z,101120.03
2022-10-02T00:03:58.990Z,101127.03
2022-10-02T00:06:41.236Z,101155.94
2022-10-02T00:09:17.142Z,101178.72
2022-10-02T00:11:48.841Z,101184.84
2022-10-02T00:14:21.329Z,101169.94
2022-10-02T00:16:54.853Z,101178.72
2022-10-02T00:19:23.019Z,101186.59
2022-10-02T00:22:20.326Z,101166.44
2022-10-02T00:24:54.622Z,101162.91
2022-10-02T00:27:50.930Z,101167.31
2022-10-02T00:30:19.930Z,101176.94
2022-10-02T00:33:06.102Z,101176.94
2022-10-02T00:35:56.980Z,101177.84
2022-10-02T00:38:39.076Z,101174.34
2022-10-02T00:41:24.054Z,101163.84
2022-10-02T00:44:15.700Z,101162.97
2022-10-02T00:46:53.806Z,101161.22
2022-10-02T00:49:52.095Z,101168.22
2022-10-02T00:52:43.014Z,101167.34
2022-10-02T00:55:34.723Z,101162.94
2022-10-02T00:58:34.561Z,101171.69
2022-10-02T01:01:09.843Z,101165.56
2022-10-02T01:03:41.391Z,101168.22
2022-10-02T01:06:13.127Z,101173.44
2022-10-02T01:08:41.836Z,101179.56
2022-10-02T01:11:10.072Z,101173.44
2022-10-02T01:13:38.267Z,101177.81
2022-10-02T01:16:12.145Z,101185.69
2022-10-02T01:18:40.612Z,101180.44
2022-10-02T01:21:14.219Z,101177.78
2022-10-02T01:23:52.990Z,101171.69
2022-10-02T01:26:22.494Z,101182.19
2022-10-02T01:28:51.242Z,101172.53
2022-10-02T01:31:19.466Z,101178.69
2022-10-02T01:33:49.850Z,101169.94
2022-10-02T01:36:18.574Z,101177.81
2022-10-02T01:38:49.244Z,101180.44
2022-10-02T01:41:17.308Z,101186.53
2022-10-02T01:43:50.286Z,101184.81
2022-10-02T01:46:33.077Z,101184.81
2022-10-02T01:49:21.113Z,101181.28
2022-10-02T01:52:14.377Z,101188.28
2022-10-02T01:54:57.876Z,101184.81
2022-10-02T01:57:39.263Z,101186.56
2022-10-02T02:00:12.435Z,101183.03
2022-10-02T02:02:53.463Z,101194.41
2022-10-02T02:05:41.602Z,101183.94
2022-10-02T02:08:16.780Z,101192.69
2022-10-02T02:10:53.178Z,101183.03
2022-10-02T02:13:27.736Z,101183.03
2022-10-02T02:16:05.458Z,101183.03
2022-10-02T02:18:40.521Z,101179.53
2022-10-02T02:21:16.312Z,101179.53
2022-10-02T02:23:45.327Z,101167.28
2022-10-02T02:26:16.875Z,101178.66
2022-10-02T02:28:51.450Z,101174.28
2022-10-02T02:31:26.264Z,101176.91
2022-10-02T02:33:59.473Z,101180.38
2022-10-02T02:36:35.622Z,101178.66
2022-10-02T02:39:09.137Z,101176.88
2022-10-02T02:41:43.180Z,101175.16
2022-10-02T02:44:18.517Z,101189.16
2022-10-02T02:47:06.678Z,101176.88
2022-10-02T02:49:51.221Z,101183.00
2022-10-02T02:52:23.871Z,101189.13
2022-10-02T02:54:57.440Z,101191.75
2022-10-02T02:57:33.423Z,101187.38
2022-10-02T03:00:04.007Z,101201.41
2022-10-02T03:02:33.703Z,101199.69
2022-10-02T03:05:01.877Z,101196.16
2022-10-02T03:07:30.169Z,101197.06
2022-10-02T03:10:07.615Z,101200.59
2022-10-02T03:12:53.344Z,101202.34
2022-10-02T03:15:30.095Z,101199.72
2022-10-02T03:18:28.159Z,101196.22
2022-10-02T03:21:09.360Z,101194.47
2022-10-02T03:23:54.187Z,101190.09
2022-10-02T03:26:36.508Z,101197.97
2022-10-02T03:29:12.351Z,101201.50
2022-10-02T03:31:41.616Z,101205.00
2022-10-02T03:34:11.402Z,101210.25
2022-10-02T03:36:39.796Z,101212.88
2022-10-02T03:39:25.864Z,101208.47
2022-10-02T03:41:54.884Z,101211.97
2022-10-02T03:44:22.977Z,101206.72
2022-10-02T03:46:51.072Z,101209.34
2022-10-02T03:49:20.860Z,101208.44
2022-10-02T03:51:49.335Z,101207.59
2022-10-02T03:54:21.160Z,101205.81
2022-10-02T03:56:56.985Z,101207.59
2022-10-02T03:59:38.350Z,101215.44
2022-10-02T04:02:12.678Z,101219.81
2022-10-02T04:04:49.225Z,101209.31
2022-10-02T04:07:22.965Z,101212.84
2022-10-02T04:09:58.985Z,101215.47
2022-10-02T04:12:34.663Z,101220.72
2022-10-02T04:15:10.744Z,101222.47
2022-10-02T04:17:45.222Z,101216.34
2022-10-02T04:20:21.349Z,101220.72
2022-10-02T04:22:55.908Z,101227.72
2022-10-02T04:25:27.923Z,101225.97
2022-10-02T04:28:00.738Z,101234.72
2022-10-02T04:30:30.086Z,101232.97
2022-10-02T04:32:59.639Z,101231.22
2022-10-02T04:35:37.279Z,101237.34
2022-10-02T04:38:33.286Z,101236.47
2022-10-02T04:41:26.150Z,101246.09
2022-10-02T04:44:09.058Z,101244.31
2022-10-02T04:46:58.742Z,101250.47
2022-10-02T04:49:57.060Z,101246.97
2022-10-02T04:52:52.421Z,101248.69
2022-10-02T04:55:53.777Z,101262.72
2022-10-02T04:58:49.567Z,101265.34
2022-10-02T05:01:31.087Z,101270.59
2022-10-02T05:04:30.893Z,101269.72
2022-10-02T05:07:17.018Z,101271.47
2022-10-02T05:09:58.438Z,101272.31
2022-10-02T05:12:48.836Z,101279.34
2022-10-02T05:15:54.456Z,101276.72
2022-10-02T05:18:46.997Z,101276.72
2022-10-02T05:21:31.855Z,101271.44
2022-10-02T05:24:18.066Z,101279.31
2022-10-02T05:27:08.362Z,101282.81
2022-10-02T05:29:59.009Z,101287.19
2022-10-02T05:33:04.279Z,101287.19
2022-10-02T05:36:09.566Z,101282.81
2022-10-02T05:39:02.299Z,101282.75
2022-10-02T05:41:40.823Z,101286.25
2022-10-02T05:44:16.580Z,101281.88
2022-10-02T05:46:50.814Z,101287.16
2022-10-02T05:49:22.350Z,101300.28
2022-10-02T05:52:00.615Z,101292.41
2022-10-02T05:54:44.452Z,101307.25
2022-10-02T05:57:22.465Z,101309.03
2022-10-02T06:00:04.142Z,101322.16
2022-10-02T06:02:42.436Z,101326.53
2022-10-02T06:05:18.900Z,101323.91
2022-10-02T06:07:51.041Z,101329.16
2022-10-02T06:10:23.054Z,101324.78
2022-10-02T06:12:58.237Z,101334.41
2022-10-02T06:15:33.764Z,101337.00
2022-10-02T06:18:07.695Z,101335.28
2022-10-02T06:20:42.759Z,101348.41
2022-10-02T06:23:16.433Z,101342.28
2022-10-02T06:25:49.097Z,101344.94
2022-10-02T06:28:23.751Z,101344.94
2022-10-02T06:31:02.804Z,101346.69
2022-10-02T06:33:34.019Z,101352.84
2022-10-02T06:36:30.114Z,101344.94
2022-10-02T06:39:28.027Z,101350.25
2022-10-02T06:42:07.833Z,101345.00
2022-10-02T06:44:47.520Z,101362.53
2022-10-02T06:47:35.363Z,101365.16
2022-10-02T06:50:24.661Z,101365.16
2022-10-02T06:53:00.806Z,101366.97
2022-10-02T06:55:43.448Z,101371.38
2022-10-02T06:58:35.513Z,101374.88
2022-10-02T07:01:12.842Z,101379.31
2022-10-02T07:04:00.704Z,101377.59
2022-10-02T07:06:43.730Z,101382.88
2022-10-02T07:09:52.473Z,101392.56
2022-10-02T07:12:54.013Z,101394.34
2022-10-02T07:16:13.934Z,101395.25
2022-10-02T07:19:11.882Z,101409.34
2022-10-02T07:21:52.008Z,101402.31
2022-10-02T07:24:45.784Z,101419.00
2022-10-02T07:27:21.019Z,101416.38
2022-10-02T07:29:59.372Z,101433.03
2022-10-02T07:32:47.394Z,101428.63
2022-10-02T07:35:42.263Z,101434.78
2022-10-02T07:38:44.088Z,101446.22
2022-10-02T07:41:40.957Z,101443.56
2022-10-02T07:44:37.136Z,101449.69
2022-10-02T07:47:19.097Z,101448.81
2022-10-02T07:49:58.265Z,101445.31
2022-10-02T07:52:39.687Z,101456.72
2022-10-02T07:55:20.262Z,101458.47
2022-10-02T07:58:01.599Z,101468.09
2022-10-02T08:00:36.643Z,101468.97
2022-10-02T08:03:13.619Z,101473.34
2022-10-02T08:05:45.574Z,101475.06
2022-10-02T08:08:23.129Z,101475.91
2022-10-02T08:10:57.634Z,101482.09
2022-10-02T08:13:32.848Z,101475.06
2022-10-02T08:16:04.627Z,101487.41
2022-10-02T08:18:37.369Z,101490.91
2022-10-02T08:21:11.701Z,101492.72
2022-10-02T08:23:48.465Z,101501.50
2022-10-02T08:26:22.300Z,101500.63
2022-10-02T08:29:01.161Z,101505.00
2022-10-02T08:31:29.517Z,101503.22
2022-10-02T08:33:58.533Z,101504.09
2022-10-02T08:36:48.927Z,101509.34
2022-10-02T08:40:01.481Z,101517.25
2022-10-02T08:43:17.435Z,101515.50
2022-10-02T08:46:24.901Z,101522.53
2022-10-02T08:49:34.449Z,101528.69
2022-10-02T08:52:53.662Z,101533.09
2022-10-02T08:55:58.949Z,101531.31
2022-10-02T08:59:08.709Z,101530.44
2022-10-02T09:02:27.613Z,101534.84
2022-10-02T09:05:43.059Z,101519.91
2022-10-02T09:08:44.918Z,101517.25
2022-10-02T09:12:13.022Z,101528.69
2022-10-02T09:14:55.614Z,101534.78
2022-10-02T09:17:49.633Z,101538.28
2022-10-02T09:21:11.415Z,101541.81
2022-10-02T09:24:43.233Z,101557.63
2022-10-02T09:28:10.144Z,101546.19
2022-10-02T09:31:33.266Z,101568.16
2022-10-02T09:35:02.078Z,101566.38
2022-10-02T09:38:21.165Z,101569.00
2022-10-02T09:41:38.989Z,101557.56
2022-10-02T09:45:00.410Z,101572.53
2022-10-02T09:48:31.145Z,101561.09
2022-10-02T09:51:41.794Z,101559.34
2022-10-02T09:54:47.234Z,101557.59
2022-10-02T09:57:55.394Z,101561.09
2022-10-02T10:01:12.669Z,101563.66
2022-10-02T10:05:04.468Z,101559.22
2022-10-02T10:08:23.197Z,101560.09
2022-10-02T10:11:17.250Z,101559.22
2022-10-02T10:14:34.830Z,101562.69
2022-10-02T10:17:56.075Z,101563.50
2022-10-02T10:21:07.734Z,101569.66
2022-10-02T10:24:15.666Z,101574.91
2022-10-02T10:27:08.096Z,101590.72
2022-10-02T10:30:08.636Z,101586.31
2022-10-02T10:33:28.084Z,101580.06
2022-10-02T10:37:01.242Z,101588.00
2022-10-02T10:40:10.346Z,101590.56
2022-10-02T10:43:16.885Z,101594.84
2022-10-02T10:46:18.177Z,101592.84
2022-10-02T10:49:18.272Z,101598.81
2022-10-02T10:51:54.287Z,101618.75
2022-10-02T10:54:58.242Z,101608.88
2022-10-02T10:57:51.922Z,101614.78
2022-10-02T11:00:23.503Z,101607.41
2022-10-02T11:03:46.323Z,101611.44
2022-10-02T11:06:51.809Z,101629.88
2022-10-02T11:10:26.072Z,101619.38
2022-10-02T11:13:19.178Z,101619.34
2022-10-02T11:16:26.095Z,101613.75
2022-10-02T11:19:34.393Z,101622.19
2022-10-02T11:22:41.986Z,101632.19
2022-10-02T11:25:58.145Z,101637.91
2022-10-02T11:29:09.263Z,101640.31
2022-10-02T11:32:14.328Z,101645.63
2022-10-02T11:35:16.980Z,101652.97
2022-10-02T11:38:13.085Z,101656.56
2022-10-02T11:41:07.592Z,101666.53
2022-10-02T11:44:06.371Z,101665.16
2022-10-02T11:47:01.997Z,101664.00
2022-10-02T11:50:37.445Z,101658.28
2022-10-02T11:54:03.126Z,101654.53
2022-10-02T11:56:46.449Z,101662.84
2022-10-02T11:59:40.556Z,101658.44
2022-10-02T12:02:16.933Z,101655.63
2022-10-02T12:05:15.629Z,101661.06
2022-10-02T12:07:53.315Z,101664.91
2022-10-02T12:10:42.049Z,101676.25
2022-10-02T12:13:47.081Z,101676.53
2022-10-02T12:16:26.641Z,101674.69
2022-10-02T12:19:12.779Z,101676.22
2022-10-02T12:22:14.982Z,101689.19
2022-10-02T12:25:16.193Z,101688.09
2022-10-02T12:27:58.366Z,101689.41
2022-10-02T12:30:36.159Z,101701.50
2022-10-02T12:33:32.255Z,101695.88
2022-10-02T12:36:27.749Z,101699.41
2022-10-02T12:39:12.923Z,101711.50
2022-10-02T12:42:12.239Z,101716.66
2022-10-02T12:45:12.711Z,101705.53
2022-10-02T12:47:57.018Z,101710.44
2022-10-02T12:51:02.151Z,101695.00
2022-10-02T12:54:09.597Z,101710.06
2022-10-02T12:57:39.354Z,101704.38
2022-10-02T13:00:15.728Z,101727.47
2022-10-02T13:03:36.945Z,101722.63
2022-10-02T13:06:45.381Z,101724.00
2022-10-02T13:09:36.397Z,101714.19
2022-10-02T13:12:41.020Z,101720.91
2022-10-02T13:15:37.320Z,101723.13
2022-10-02T13:18:25.454Z,101734.56
2022-10-02T13:21:04.271Z,101723.06
2022-10-02T13:23:42.539Z,101734.69
2022-10-02T13:26:22.338Z,101736.16
2022-10-02T13:29:32.972Z,101737.31
2022-10-02T13:32:46.962Z,101733.31
2022-10-02T13:35:44.305Z,101735.09
2022-10-02T13:38:43.922Z,101738.84
2022-10-02T13:41:26.645Z,101731.16
2022-10-02T13:44:08.961Z,101740.91
2022-10-02T13:47:20.863Z,101739.97
2022-10-02T13:50:17.800Z,101750.22
2022-10-02T13:53:13.458Z,101747.03
2022-10-02T13:55:47.093Z,101758.78
2022-10-02T13:58:37.225Z,101765.19
2022-10-02T14:01:20.591Z,101771.50
2022-10-02T14:04:11.410Z,101779.84
2022-10-02T14:06:45.946Z,101779.81
2022-10-02T14:09:39.547Z,101777.38
2022-10-02T14:12:37.642Z,101779.47
2022-10-02T14:15:33.625Z,101772.19
2022-10-02T14:18:46.721Z,101775.97
2022-10-02T14:21:31.231Z,101780.47
2022-10-02T14:24:45.938Z,101779.53
2022-10-02T14:27:40.996Z,101782.13
2022-10-02T14:30:24.234Z,101774.97
2022-10-02T14:33:07.905Z,101785.72
2022-10-02T14:35:49.171Z,101790.44
2022-10-02T14:38:41.571Z,101794.28
2022-10-02T14:41:37.955Z,101801.66
2022-10-02T14:44:52.138Z,101801.81
2022-10-02T14:47:56.264Z,101805.34
2022-10-02T14:50:57.223Z,101807.94
2022-10-02T14:54:19.999Z,101812.38
2022-10-02T14:57:17.363Z,101811.47
2022-10-02T15:00:18.566Z,101821.16
2022-10-02T15:04:07.010Z,101809.69
2022-10-02T15:07:00.827Z,101831.81
2022-10-02T15:09:40.368Z,101837.31
2022-10-02T15:12:21.255Z,101823.28
2022-10-02T15:15:12.804Z,101843.34
2022-10-02T15:17:56.613Z,101833.34
2022-10-02T15:20:40.641Z,101836.66
2022-10-02T15:23:16.896Z,101851.59
2022-10-02T15:26:14.298Z,101850.78
2022-10-02T15:28:56.623Z,101857.97
2022-10-02T15:31:38.208Z,101856.25
2022-10-02T15:34:20.192Z,101861.63
2022-10-02T15:37:14.087Z,101865.19
2022-10-02T15:40:06.428Z,101864.88
2022-10-02T15:42:56.170Z,101870.63
2022-10-02T15:45:59.702Z,101880.22
2022-10-02T15:49:02.205Z,101876.44
2022-10-02T15:52:00.989Z,101885.00
2022-10-02T15:54:51.630Z,101894.91
2022-10-02T15:57:44.470Z,101891.69
2022-10-02T16:00:23.848Z,101897.97
2022-10-02T16:03:02.994Z,101898.13
2022-10-02T16:05:56.485Z,101902.59
2022-10-02T16:08:57.067Z,101901.81
2022-10-02T16:12:05.110Z,101904.31
2022-10-02T16:14:45.915Z,101913.13
2022-10-02T16:17:47.034Z,101925.19
2022-10-02T16:20:41.450Z,101927.38
2022-10-02T16:23:30.341Z,101938.28
2022-10-02T16:26:28.189Z,101935.03
2022-10-02T16:29:17.115Z,101949.38
2022-10-02T16:32:02.173Z,101955.72
2022-10-02T16:34:45.684Z,101970.81
2022-10-02T16:37:25.106Z,101962.03
2022-10-02T16:40:00.662Z,101962.09
2022-10-02T16:42:42.446Z,101971.84
2022-10-02T16:45:43.499Z,101976.31
2022-10-02T16:48:16.410Z,101978.13
2022-10-02T16:51:13.715Z,101971.97
2022-10-02T16:53:49.121Z,101978.13
2022-10-02T16:56:24.614Z,101984.31
2022-10-02T16:59:01.617Z,101993.97
2022-10-02T17:01:35.914Z,101995.72
2022-10-02T17:04:22.090Z,101995.69
2022-10-02T17:07:00.113Z,102008.03
2022-10-02T17:09:39.864Z,102012.41
2022-10-02T17:12:21.108Z,102016.78
2022-10-02T17:14:57.210Z,102021.19
2022-10-02T17:17:34.914Z,102022.88
2022-10-02T17:20:18.310Z,102023.72
2022-10-02T17:22:58.402Z,102032.47
2022-10-02T17:25:33.104Z,102027.19
2022-10-02T17:28:09.606Z,102029.75
2022-10-02T17:30:58.526Z,102026.19
2022-10-02T17:33:32.335Z,102041.06
2022-10-02T17:36:12.902Z,102035.72
2022-10-02T17:39:14.987Z,102043.56
2022-10-02T17:41:53.014Z,102046.16
2022-10-02T17:44:47.492Z,102053.13
2022-10-02T17:47:38.799Z,102052.22
2022-10-02T17:50:32.418Z,102054.81
2022-10-02T17:53:34.616Z,102060.03
2022-10-02T17:56:28.968Z,102068.75
2022-10-02T17:59:56.020Z,102068.72
2022-10-02T18:03:00.452Z,102087.06
2022-10-02T18:05:39.712Z,102080.00
2022-10-02T18:08:30.603Z,102092.25
2022-10-02T18:11:08.948Z,102094.84
2022-10-02T18:13:58.677Z,102100.91
2022-10-02T18:16:40.825Z,102105.19
2022-10-02T18:19:27.682Z,102103.38
2022-10-02T18:22:22.161Z,102106.88
2022-10-02T18:25:19.302Z,102107.69
2022-10-02T18:28:18.837Z,102105.84
2022-10-02T18:30:58.867Z,102113.72
2022-10-02T18:34:21.573Z,102110.97
2022-10-02T18:37:10.475Z,102117.09
2022-10-02T18:39:44.951Z,102122.34
2022-10-02T18:42:41.050Z,102124.88
2022-10-02T18:45:34.901Z,102124.84
2022-10-02T18:48:23.344Z,102136.22
2022-10-02T18:51:16.677Z,102134.41
2022-10-02T18:54:05.230Z,102137.94
2022-10-02T18:56:55.910Z,102139.66
2022-10-02T18:59:41.575Z,102135.19
2022-10-02T19:02:27.347Z,102142.19
2022-10-02T19:05:25.755Z,102143.91
2022-10-02T19:08:08.755Z,102144.75
2022-10-02T19:10:47.526Z,102139.50
2022-10-02T19:13:25.046Z,102140.31
2022-10-02T19:15:59.018Z,102142.91
2022-10-02T19:18:31.268Z,102141.16
2022-10-02T19:21:06.672Z,102146.41
2022-10-02T19:23:39.794Z,102146.38
2022-10-02T19:26:19.015Z,102162.13
2022-10-02T19:28:50.843Z,102162.94
2022-10-02T19:31:24.241Z,102169.91
2022-10-02T19:33:57.310Z,102178.63
2022-10-02T19:36:28.286Z,102178.59
2022-10-02T19:39:01.366Z,102184.72
2022-10-02T19:41:35.369Z,102185.66
2022-10-02T19:44:07.164Z,102186.59
2022-10-02T19:46:39.693Z,102184.88
2022-10-02T19:49:20.291Z,102183.91
2022-10-02T19:51:48.861Z,102186.44
2022-10-02T19:54:21.820Z,102190.75
2022-10-02T19:56:55.037Z,102191.59
2022-10-02T19:59:29.629Z,102195.06
2022-10-02T20:02:03.615Z,102198.53
2022-10-02T20:04:33.670Z,102202.00
2022-10-02T20:07:02.993Z,102202.81
2022-10-02T20:09:37.383Z,102215.09
2022-10-02T20:12:11.847Z,102218.56
2022-10-02T20:14:44.970Z,102214.16
2022-10-02T20:17:13.885Z,102226.38
2022-10-02T20:19:48.240Z,102229.84
2022-10-02T20:22:24.985Z,102219.28
2022-10-02T20:24:59.514Z,102223.59
2022-10-02T20:27:39.467Z,102225.31
2022-10-02T20:30:14.512Z,102228.78
2022-10-02T20:32:51.216Z,102237.44
2022-10-02T20:35:29.138Z,102229.53
2022-10-02T20:38:02.106Z,102232.06
2022-10-02T20:40:36.825Z,102230.31
2022-10-02T20:43:09.887Z,102238.16
2022-10-02T20:45:47.050Z,102228.47
2022-10-02T20:49:07.933Z,102240.69
2022-10-02T20:52:14.973Z,102239.72
2022-10-02T20:54:54.045Z,102250.25
2022-10-02T20:58:04.625Z,102255.44
2022-10-02T21:00:52.071Z,102255.41
2022-10-02T21:03:56.722Z,102258.84
2022-10-02T21:07:07.061Z,102262.31
2022-10-02T21:10:28.490Z,102257.00
2022-10-02T21:13:48.392Z,102271.03
2022-10-02T21:16:49.872Z,102265.78
2022-10-02T21:19:41.804Z,102272.78
2022-10-02T21:23:01.405Z,102281.66
2022-10-02T21:26:18.084Z,102276.50
2022-10-02T21:29:36.797Z,102274.81
2022-10-02T21:32:51.084Z,102278.28
2022-10-02T21:35:41.193Z,102286.97
2022-10-02T21:38:52.748Z,102292.09
2022-10-02T21:42:18.462Z,102292.03
2022-10-02T21:45:35.118Z,102291.06
2022-10-02T21:49:05.889Z,102309.31
2022-10-02T21:52:07.445Z,102307.47
2022-10-02T21:55:39.460Z,102320.50
2022-10-02T21:59:08.005Z,102325.66
2022-10-02T22:02:09.286Z,102326.47
2022-10-02T22:05:22.663Z,102328.22
2022-10-02T22:08:01.005Z,102329.06
2022-10-02T22:10:36.906Z,102328.94
2022-10-02T22:13:23.254Z,102335.91
2022-10-02T22:16:05.064Z,102326.19
2022-10-02T22:18:47.848Z,102333.13
2022-10-02T22:21:36.519Z,102335.75
2022-10-02T22:24:25.232Z,102345.31
2022-10-02T22:27:12.633Z,102346.19
2022-10-02T22:29:51.151Z,102340.06
2022-10-02T22:33:07.282Z,102349.66
2022-10-02T22:36:11.801Z,102339.13
2022-10-02T22:38:45.426Z,102343.63
2022-10-02T22:41:27.358Z,102337.72
2022-10-02T22:44:00.022Z,102344.94
2022-10-02T22:46:46.979Z,102348.59
2022-10-02T22:49:24.576Z,102353.97
2022-10-02T22:52:01.311Z,102358.53
2022-10-02T22:54:40.025Z,102363.91
2022-10-02T22:57:19.240Z,102358.81
2022-10-02T22:59:55.668Z,102365.00
2022-10-02T23:02:32.449Z,102369.41
2022-10-02T23:05:10.909Z,102366.72
2022-10-02T23:07:49.590Z,102369.22
2022-10-02T23:10:30.102Z,102368.28
2022-10-02T23:13:06.534Z,102365.63
2022-10-02T23:15:43.217Z,102368.25
2022-10-02T23:18:32.345Z,102372.56
2022-10-02T23:21:11.946Z,102376.91
2022-10-02T23:23:50.920Z,102374.16
2022-10-02T23:26:28.644Z,102371.38
2022-10-02T23:29:14.979Z,102380.88
2022-10-02T23:31:52.854Z,102388.66
2022-10-02T23:34:36.331Z,102385.09
2022-10-02T23:37:18.751Z,102392.00
2022-10-02T23:39:55.628Z,102390.25
2022-10-02T23:42:32.979Z,102384.06
2022-10-02T23:45:08.319Z,102384.84
2022-10-02T23:47:54.769Z,102391.72
2022-10-02T23:50:29.554Z,102388.19
2022-10-02T23:53:38.599Z,102388.94
2022-10-02T23:56:24.296Z,102393.22
2022-10-02T23:59:12.557Z,102400.22
